CheckWX is a tool to help pilots better visualize weather data.  It is not intended as a substitute for an official pre-flight weather briefing.

01:15:55 UTC

KBFW METAR
Silver Bay Municipal Airport
Silver Bay, Minnesota, USA
Current

21 mins ago

KBFW 240055Z AUTO 07005G08KT 1SM BR OVC003 M02/M02 A2974 RMK AO2
Observed
Feb-24 @ 00:55 UTC
Wind
  • 070° at 5 KTS
  • Gusting to 8 KTS
Visibility
1 SM
Flight Rules
LIFR
Conditions
Mist
Cloud Levels
  • Overcast at 300' AGL
Temperature
-2°C / 28°F
Dewpoint
-2°C / 28°F
Humidity
100%
Altimeter
29.74" Hg
Pressure
1007.12 hPa
Previous

41 mins ago

KBFW 240035Z AUTO 05008KT 2SM BR OVC003 M02/M02 A2973 RMK AO2 VIS 1 3/4V3
Observed
Feb-24 @ 00:35 UTC
Wind
  • 050° at 8 KTS
Visibility
2 SM
Flight Rules
LIFR
Conditions
Mist
Cloud Levels
  • Overcast at 300' AGL
Temperature
-2°C / 28°F
Dewpoint
-2°C / 28°F
Humidity
100%
Altimeter
29.73" Hg
Pressure
1006.82 hPa
Previous

1 hour ago

KBFW 240015Z AUTO 04009KT 3SM BR OVC003 M02/M02 A2974 RMK AO2
Observed
Feb-24 @ 00:15 UTC
Wind
  • 040° at 9 KTS
Visibility
3 SM
Flight Rules
LIFR
Conditions
Mist
Cloud Levels
  • Overcast at 300' AGL
Temperature
-2°C / 28°F
Dewpoint
-2°C / 28°F
Humidity
100%
Altimeter
29.74" Hg
Pressure
1007.12 hPa